KARB

Ann Arbor Municipal Airport

Ann Arbor, Michigan, USA
METAR KARB 191953Z 07006KT 10SM OVC050 24/16 A2998 RMK AO2 SLP147 T02440161
Observed Flight Rules
Jun-19 @ 19:53 UTC (22 minutes ago) Visual Flight Rules
Wind Visibility Clouds
70° at 6 knots 10 miles
  • Overcast at 5,000' AGL
Temperatures Readings
Current 24°C / 75°F
Dewpoint 16°C / 61°F
Humidity 61%
Altimeter 29.98" Hg
Pressure 1014.7 hPa
Elevation 251
METAR KARB 191953Z 07006KT 10SM OVC050 24/16 A2998 RMK AO2 SLP147 T02440161
Observed Flight Rules
Jun-19 @ 19:53 UTC
(22 minutes ago)
VFR
Wind Visibility
70° at 6 knots 10 miles
Clouds
  • Overcast at 5,000' AGL
Temperature Dewpoint
24°C / 75°F 16°C / 61°F
Humidity Altimeter Pressure
61% 29.98" Hg 1014.7 hPa